SLET/SRZ METAR and TAF weather

Enter ICAO airport designator
Station Type Date Time Source
SLET METAR 2021/08/01 23:00 UTC NOAA

SLET 012300Z 16006KT 9999 FEW070 19/05 Q1024


Station Type Date Time Source
SLET Decoded METAR 2021/08/01 23:00 UTC NOAA

Santa Cruz / El Trompillo, Bolivia (SLET) 17-48S 063-11W 414M
Aug 01, 2021 - 07:00 PM EDT / 2021.08.01 2300 UTC
Wind: from the SSE (160 degrees) at 7 MPH (6 KT):0
Visibility: greater than 7 mile(s):0
Sky conditions: mostly clear
Temperature: 66 F (19 C)
Dew Point: 41 F (5 C)
Relative Humidity: 39%
Pressure (altimeter): 30.24 in. Hg (1024 hPa)
ob: SLET 012300Z 16006KT 9999 FEW070 19/05 Q1024
cycle: 23

Station Type Date Time Source
SLET TAF 2021/08/01 18:03 UTC NOAA

TAF SLET 011630Z 0118/0218 19015G28KT 9999 SCT025 BKN070 TX26/0119Z TN17/0209Z
TEMPO 0203/0206 17010KT BKN070
BECMG 0214/0216 17010G22KT FEW023 SCT070

Example: see airport list